createdAt,value
2023-04-07T00:02:02.386Z,7.21
2023-04-07T00:04:29.273Z,7.25
2023-04-07T00:06:58.199Z,7.25
2023-04-07T00:09:24.738Z,7.24
2023-04-07T00:11:51.743Z,7.24
2023-04-07T00:14:18.197Z,7.21
2023-04-07T00:16:44.803Z,7.23
2023-04-07T00:19:11.369Z,7.21
2023-04-07T00:21:37.813Z,7.25
2023-04-07T00:24:05.076Z,7.23
2023-04-07T00:26:32.851Z,7.21
2023-04-07T00:29:00.670Z,7.24
2023-04-07T00:31:27.978Z,7.26
2023-04-07T00:33:55.702Z,7.22
2023-04-07T00:36:23.239Z,7.18
2023-04-07T00:38:50.283Z,7.19
2023-04-07T00:41:17.695Z,7.15
2023-04-07T00:43:45.924Z,7.17
2023-04-07T00:46:12.468Z,7.24
2023-04-07T00:48:41.346Z,7.23
2023-04-07T00:51:07.863Z,7.21
2023-04-07T00:53:34.831Z,7.19
2023-04-07T00:56:01.808Z,7.19
2023-04-07T00:58:28.752Z,7.11
2023-04-07T01:01:06.604Z,7.12
2023-04-07T01:03:46.862Z,7.18
2023-04-07T01:06:18.064Z,7.12
2023-04-07T01:09:00.803Z,7.14
2023-04-07T01:11:41.177Z,7.13
2023-04-07T01:14:11.156Z,7.16
2023-04-07T01:16:54.677Z,7.13
2023-04-07T01:19:54.931Z,7.12
2023-04-07T01:22:28.643Z,7.17
2023-04-07T01:25:10.532Z,7.19
2023-04-07T01:27:55.089Z,7.20
2023-04-07T01:30:24.238Z,7.19
2023-04-07T01:32:53.296Z,7.18
2023-04-07T01:35:21.029Z,7.19
2023-04-07T01:37:50.392Z,7.13
2023-04-07T01:40:18.068Z,7.14
2023-04-07T01:42:46.082Z,7.12
2023-04-07T01:45:16.222Z,7.09
2023-04-07T01:47:44.121Z,7.18
2023-04-07T01:50:12.631Z,7.18
2023-04-07T01:52:40.712Z,7.20
2023-04-07T01:55:09.669Z,7.24
2023-04-07T01:57:36.790Z,7.27
2023-04-07T02:00:04.204Z,7.18
2023-04-07T02:02:39.481Z,7.19
2023-04-07T02:05:12.395Z,7.15
2023-04-07T02:08:10.009Z,7.19
2023-04-07T02:10:38.834Z,7.26
2023-04-07T02:13:09.005Z,7.12
2023-04-07T02:15:37.184Z,7.15
2023-04-07T02:18:10.578Z,7.13
2023-04-07T02:20:37.704Z,7.29
2023-04-07T02:23:07.901Z,7.16
2023-04-07T02:25:34.374Z,7.13
2023-04-07T02:28:01.465Z,7.08
2023-04-07T02:30:28.503Z,7.00
2023-04-07T02:32:55.996Z,6.95
2023-04-07T02:35:23.405Z,7.07
2023-04-07T02:37:50.443Z,7.02
2023-04-07T02:40:17.523Z,7.04
2023-04-07T02:42:44.240Z,7.05
2023-04-07T02:45:11.444Z,7.19
2023-04-07T02:47:39.718Z,7.03
2023-04-07T02:50:06.884Z,7.24
2023-04-07T02:52:33.583Z,7.26
2023-04-07T02:55:00.977Z,7.18
2023-04-07T02:57:27.537Z,7.14
2023-04-07T02:59:56.341Z,7.15
2023-04-07T03:02:23.639Z,7.13
2023-04-07T03:04:53.054Z,7.18
2023-04-07T03:07:20.339Z,7.34
2023-04-07T03:09:47.415Z,7.48
2023-04-07T03:12:15.514Z,7.25
2023-04-07T03:14:42.343Z,7.26
2023-04-07T03:17:09.145Z,7.25
2023-04-07T03:19:36.056Z,7.18
2023-04-07T03:22:03.341Z,7.39
2023-04-07T03:24:30.715Z,7.43
2023-04-07T03:26:57.731Z,7.53
2023-04-07T03:29:24.780Z,7.46
2023-04-07T03:31:52.504Z,7.48
2023-04-07T03:34:20.560Z,7.54
2023-04-07T03:36:47.128Z,7.59
2023-04-07T03:39:14.048Z,7.39
2023-04-07T03:41:40.640Z,7.43
2023-04-07T03:44:07.035Z,7.42
2023-04-07T03:46:33.933Z,7.61
2023-04-07T03:49:00.518Z,7.52
2023-04-07T03:51:27.861Z,7.65
2023-04-07T03:53:56.833Z,7.59
2023-04-07T03:56:24.741Z,7.46
2023-04-07T03:58:51.588Z,7.54
2023-04-07T04:01:19.138Z,7.57
2023-04-07T04:03:46.906Z,7.43
2023-04-07T04:06:13.758Z,7.53
2023-04-07T04:08:42.024Z,7.48
2023-04-07T04:11:08.615Z,7.56
2023-04-07T04:13:35.357Z,7.50
2023-04-07T04:16:02.647Z,7.58
2023-04-07T04:18:29.591Z,7.68
2023-04-07T04:20:56.270Z,7.62
2023-04-07T04:23:23.793Z,7.63
2023-04-07T04:25:51.686Z,7.64
2023-04-07T04:28:18.447Z,7.70
2023-04-07T04:30:45.334Z,7.81
2023-04-07T04:33:12.218Z,7.79
2023-04-07T04:35:39.510Z,7.69
2023-04-07T04:38:08.622Z,7.76
2023-04-07T04:40:37.140Z,7.79
2023-04-07T04:43:09.389Z,7.78
2023-04-07T04:45:36.292Z,7.75
2023-04-07T04:48:04.053Z,7.79
2023-04-07T04:50:30.848Z,7.81
2023-04-07T04:52:57.733Z,7.77
2023-04-07T04:55:24.757Z,7.82
2023-04-07T04:57:53.413Z,7.71
2023-04-07T05:00:21.116Z,7.76
2023-04-07T05:02:48.288Z,7.77
2023-04-07T05:05:15.751Z,7.78
2023-04-07T05:07:42.750Z,7.76
2023-04-07T05:10:12.186Z,7.78
2023-04-07T05:12:39.467Z,7.67
2023-04-07T05:15:07.019Z,7.67
2023-04-07T05:17:34.849Z,7.59
2023-04-07T05:20:01.490Z,7.65
2023-04-07T05:22:28.571Z,7.66
2023-04-07T05:24:55.576Z,7.64
2023-04-07T05:27:22.170Z,7.56
2023-04-07T05:29:48.746Z,7.61
2023-04-07T05:32:15.583Z,7.58
2023-04-07T05:34:42.296Z,7.58
2023-04-07T05:37:09.080Z,7.61
2023-04-07T05:39:35.724Z,7.60
2023-04-07T05:42:03.373Z,7.59
2023-04-07T05:44:32.321Z,7.60
2023-04-07T05:46:58.747Z,7.54
2023-04-07T05:49:25.637Z,7.56
2023-04-07T05:51:52.190Z,7.56
2023-04-07T05:54:19.597Z,7.49
2023-04-07T05:56:46.740Z,7.48
2023-04-07T05:59:14.144Z,7.57
2023-04-07T06:01:42.393Z,7.48
2023-04-07T06:04:09.071Z,7.50
2023-04-07T06:06:35.909Z,7.54
2023-04-07T06:09:02.819Z,7.55
2023-04-07T06:11:30.335Z,7.63
2023-04-07T06:13:57.081Z,7.59
2023-04-07T06:16:23.679Z,7.63
2023-04-07T06:18:50.510Z,7.58
2023-04-07T06:21:17.037Z,7.57
2023-04-07T06:23:45.312Z,7.47
2023-04-07T06:26:12.302Z,7.43
2023-04-07T06:28:39.884Z,7.45
2023-04-07T06:31:08.816Z,7.55
2023-04-07T06:33:35.476Z,7.50
2023-04-07T06:36:02.316Z,7.53
2023-04-07T06:38:29.282Z,7.49
2023-04-07T06:40:56.225Z,7.54
2023-04-07T06:43:23.274Z,7.50
2023-04-07T06:45:51.195Z,7.54
2023-04-07T06:48:17.990Z,7.53
2023-04-07T06:50:49.652Z,7.53
2023-04-07T06:53:16.517Z,7.62
2023-04-07T06:55:43.143Z,7.63
2023-04-07T06:58:09.952Z,7.65
2023-04-07T07:00:37.155Z,7.54
2023-04-07T07:03:04.480Z,7.49
2023-04-07T07:05:31.657Z,7.70
2023-04-07T07:07:59.264Z,7.70
2023-04-07T07:10:26.187Z,7.64
2023-04-07T07:12:54.197Z,7.59
2023-04-07T07:15:21.926Z,7.67
2023-04-07T07:17:48.915Z,7.63
2023-04-07T07:20:16.106Z,7.57
2023-04-07T07:22:43.250Z,7.48
2023-04-07T07:25:10.119Z,7.61
2023-04-07T07:27:37.190Z,7.61
2023-04-07T07:30:05.538Z,7.72
2023-04-07T07:32:32.560Z,7.63
2023-04-07T07:34:59.188Z,7.63
2023-04-07T07:37:26.289Z,7.59
2023-04-07T07:39:52.741Z,7.67
2023-04-07T07:42:19.306Z,7.58
2023-04-07T07:44:46.146Z,7.65
2023-04-07T07:47:13.636Z,7.60
2023-04-07T07:49:40.382Z,7.54
2023-04-07T07:52:08.675Z,7.50
2023-04-07T07:54:36.472Z,7.52
2023-04-07T07:57:04.311Z,7.52
2023-04-07T07:59:33.088Z,7.56
2023-04-07T08:01:59.784Z,7.69
2023-04-07T08:04:26.316Z,7.77
2023-04-07T08:06:53.641Z,7.65
2023-04-07T08:09:20.325Z,7.64
2023-04-07T08:11:48.479Z,7.65
2023-04-07T08:14:15.813Z,7.55
2023-04-07T08:16:42.871Z,7.65
2023-04-07T08:19:10.311Z,7.68
2023-04-07T08:21:36.823Z,7.63
2023-04-07T08:24:03.725Z,7.79
2023-04-07T08:26:30.593Z,7.86
2023-04-07T08:28:58.472Z,7.76
2023-04-07T08:31:26.211Z,7.73
2023-04-07T08:33:57.240Z,7.74
2023-04-07T08:36:24.646Z,7.70
2023-04-07T08:38:51.355Z,7.74
2023-04-07T08:41:21.825Z,7.72
2023-04-07T08:43:49.839Z,7.72
2023-04-07T08:46:21.976Z,7.74
2023-04-07T08:48:51.670Z,7.89
2023-04-07T08:51:27.641Z,7.90
2023-04-07T08:53:57.955Z,8.00
2023-04-07T08:56:27.054Z,7.95
2023-04-07T08:58:55.776Z,7.85
2023-04-07T09:01:25.446Z,7.89
2023-04-07T09:03:52.760Z,7.77
2023-04-07T09:06:19.810Z,7.82
2023-04-07T09:08:46.449Z,7.78
2023-04-07T09:11:12.862Z,7.72
2023-04-07T09:13:39.366Z,7.73
2023-04-07T09:16:06.661Z,7.83
2023-04-07T09:18:33.811Z,7.75
2023-04-07T09:21:02.495Z,7.82
2023-04-07T09:23:31.102Z,7.92
2023-04-07T09:26:00.012Z,7.98
2023-04-07T09:28:39.156Z,8.09
2023-04-07T09:31:07.992Z,7.91
2023-04-07T09:33:36.092Z,8.01
2023-04-07T09:36:04.552Z,8.11
2023-04-07T09:38:39.875Z,8.05
2023-04-07T09:41:10.690Z,8.06
2023-04-07T09:43:42.036Z,7.94
2023-04-07T09:46:13.907Z,8.12
2023-04-07T09:48:41.557Z,8.14
2023-04-07T09:51:13.791Z,8.35
2023-04-07T09:53:47.664Z,8.29
2023-04-07T09:56:17.985Z,8.14
2023-04-07T09:58:51.596Z,8.17
2023-04-07T10:01:18.368Z,8.28
2023-04-07T10:03:47.243Z,8.27
2023-04-07T10:06:14.574Z,8.37
2023-04-07T10:08:42.878Z,8.48
2023-04-07T10:11:10.188Z,8.39
2023-04-07T10:13:39.748Z,8.37
2023-04-07T10:16:07.990Z,8.31
2023-04-07T10:18:36.759Z,8.11
2023-04-07T10:21:08.171Z,8.22
2023-04-07T10:23:59.921Z,8.31
2023-04-07T10:26:31.527Z,8.38
2023-04-07T10:29:06.654Z,8.39
2023-04-07T10:31:34.623Z,8.44
2023-04-07T10:34:02.791Z,8.46
2023-04-07T10:36:30.598Z,8.54
2023-04-07T10:39:06.555Z,8.79
2023-04-07T10:41:40.470Z,8.81
2023-04-07T10:44:08.991Z,8.85
2023-04-07T10:46:51.994Z,8.72
2023-04-07T10:49:19.220Z,8.85
2023-04-07T10:52:12.478Z,8.72
2023-04-07T10:54:39.915Z,8.89
2023-04-07T10:57:10.246Z,8.73
2023-04-07T10:59:39.457Z,8.85
2023-04-07T11:02:15.438Z,8.68
2023-04-07T11:04:47.582Z,8.79
2023-04-07T11:07:16.319Z,8.75
2023-04-07T11:09:43.005Z,8.61
2023-04-07T11:12:23.682Z,8.68
2023-04-07T11:14:50.735Z,8.61
2023-04-07T11:17:17.493Z,8.48
2023-04-07T11:19:54.224Z,8.56
2023-04-07T11:24:50.366Z,8.39
2023-04-07T11:27:16.961Z,8.43
2023-04-07T11:29:44.052Z,8.46
2023-04-07T11:32:12.964Z,8.35
2023-04-07T11:34:39.945Z,8.48
2023-04-07T11:37:28.693Z,8.74
2023-04-07T11:39:56.828Z,9.17
2023-04-07T11:42:32.748Z,9.69
2023-04-07T11:45:00.860Z,9.88
2023-04-07T11:47:37.576Z,10.44
2023-04-07T11:50:04.817Z,10.06
2023-04-07T11:52:48.590Z,10.61
2023-04-07T11:55:24.123Z,10.35
2023-04-07T11:57:51.731Z,10.62
2023-04-07T12:00:20.730Z,10.82
2023-04-07T12:02:47.862Z,10.60
2023-04-07T12:05:15.403Z,10.32
2023-04-07T12:07:53.444Z,10.12
2023-04-07T12:10:27.218Z,10.17
2023-04-07T12:12:54.027Z,9.50
2023-04-07T12:15:21.846Z,9.50
2023-04-07T12:17:49.054Z,9.46
2023-04-07T12:20:17.419Z,9.32
2023-04-07T12:22:44.696Z,9.38
2023-04-07T12:25:11.535Z,9.15
2023-04-07T12:27:43.419Z,9.31
2023-04-07T12:30:11.652Z,9.41
2023-04-07T12:32:39.324Z,9.34
2023-04-07T12:35:06.780Z,9.63
2023-04-07T12:37:34.015Z,9.99
2023-04-07T12:40:00.577Z,9.85
2023-04-07T12:42:27.884Z,10.18
2023-04-07T12:44:54.515Z,9.72
2023-04-07T12:47:21.953Z,9.58
2023-04-07T12:49:49.926Z,9.77
2023-04-07T12:52:17.123Z,9.77
2023-04-07T12:54:45.248Z,10.02
2023-04-07T12:57:11.990Z,10.14
2023-04-07T12:59:38.678Z,10.55
2023-04-07T13:02:05.430Z,10.67
2023-04-07T13:04:32.681Z,10.82
2023-04-07T13:07:00.901Z,10.63
2023-04-07T13:09:27.973Z,11.23
2023-04-07T13:11:54.705Z,10.81
2023-04-07T13:14:21.762Z,10.62
2023-04-07T13:16:48.627Z,10.99
2023-04-07T13:19:15.986Z,11.10
2023-04-07T13:21:46.707Z,11.44
2023-04-07T13:24:14.799Z,11.05
2023-04-07T13:26:41.736Z,11.23
2023-04-07T13:29:08.240Z,11.31
2023-04-07T13:31:34.940Z,11.24
2023-04-07T13:34:01.497Z,10.56
2023-04-07T13:36:28.325Z,10.95
2023-04-07T13:38:56.907Z,10.59
2023-04-07T13:41:23.735Z,11.07
2023-04-07T13:43:50.669Z,10.66
2023-04-07T13:46:27.997Z,10.72
2023-04-07T13:48:56.451Z,11.03
2023-04-07T13:51:23.147Z,10.41
2023-04-07T13:53:49.934Z,10.51
2023-04-07T13:56:16.546Z,10.55
2023-04-07T13:58:43.553Z,10.36
2023-04-07T14:01:10.168Z,10.27
2023-04-07T14:03:37.551Z,10.33
2023-04-07T14:06:04.253Z,10.53
2023-04-07T14:08:32.336Z,10.20
2023-04-07T14:10:59.043Z,10.18
2023-04-07T14:13:28.249Z,10.47
2023-04-07T14:15:56.052Z,10.58
2023-04-07T14:18:23.481Z,10.56
2023-04-07T14:20:50.488Z,10.45
2023-04-07T14:23:29.990Z,10.51
2023-04-07T14:26:01.237Z,10.91
2023-04-07T14:28:28.368Z,10.56
2023-04-07T14:30:55.213Z,10.95
2023-04-07T14:33:22.437Z,10.88
2023-04-07T14:35:49.287Z,10.55
2023-04-07T14:38:17.587Z,10.23
2023-04-07T14:40:46.433Z,10.13
2023-04-07T14:43:13.356Z,10.30
2023-04-07T14:45:40.376Z,10.26
2023-04-07T14:48:07.816Z,10.48
2023-04-07T14:50:34.640Z,10.57
2023-04-07T14:53:01.498Z,10.42
2023-04-07T14:55:28.128Z,10.08
2023-04-07T14:57:54.703Z,10.08
2023-04-07T15:00:21.469Z,10.16
2023-04-07T15:02:48.992Z,10.23
2023-04-07T15:05:15.959Z,10.43
2023-04-07T15:07:42.824Z,10.53
2023-04-07T15:10:11.149Z,10.40
2023-04-07T15:12:37.923Z,10.60
2023-04-07T15:15:04.783Z,10.53
2023-04-07T15:17:43.254Z,10.41
2023-04-07T15:20:12.643Z,10.88
2023-04-07T15:22:40.135Z,10.72
2023-04-07T15:25:06.848Z,10.35
2023-04-07T15:27:33.637Z,10.31
2023-04-07T15:30:00.593Z,10.25
2023-04-07T15:32:27.607Z,10.12
2023-04-07T15:34:54.708Z,10.12
2023-04-07T15:37:21.223Z,9.98
2023-04-07T15:39:48.922Z,9.98
2023-04-07T15:42:15.355Z,9.83
2023-04-07T15:44:43.002Z,9.67
2023-04-07T15:47:09.995Z,9.65
2023-04-07T15:49:39.101Z,9.63
2023-04-07T15:52:06.174Z,9.66
2023-04-07T15:54:33.732Z,9.58
2023-04-07T15:57:00.959Z,9.52
2023-04-07T15:59:30.676Z,9.41
2023-04-07T16:01:57.530Z,9.45
2023-04-07T16:04:24.336Z,9.63
2023-04-07T16:06:50.839Z,9.46
2023-04-07T16:09:17.362Z,9.37
2023-04-07T16:11:43.745Z,9.32
2023-04-07T16:14:10.414Z,9.43
2023-04-07T16:16:37.293Z,9.34
2023-04-07T16:19:03.898Z,9.30
2023-04-07T16:21:31.363Z,9.28
2023-04-07T16:23:58.155Z,9.15
2023-04-07T16:26:24.602Z,9.12
2023-04-07T16:28:51.934Z,9.14
2023-04-07T16:31:18.671Z,9.10
2023-04-07T16:33:45.371Z,9.10
2023-04-07T16:36:11.844Z,9.11
2023-04-07T16:38:38.588Z,9.15
2023-04-07T16:41:07.433Z,9.14
2023-04-07T16:43:34.075Z,9.12
2023-04-07T16:46:02.001Z,9.06
2023-04-07T16:48:28.745Z,8.95
2023-04-07T16:50:55.834Z,8.92
2023-04-07T16:53:22.331Z,9.00
2023-04-07T16:55:48.868Z,8.98
2023-04-07T16:58:18.929Z,8.95
2023-04-07T17:00:46.235Z,9.03
2023-04-07T17:03:14.701Z,9.06
2023-04-07T17:05:41.579Z,8.97
2023-04-07T17:08:08.394Z,8.95
2023-04-07T17:10:37.314Z,8.98
2023-04-07T17:13:03.990Z,8.96
2023-04-07T17:15:35.025Z,8.98
2023-04-07T17:18:01.728Z,8.87
2023-04-07T17:20:28.167Z,8.91
2023-04-07T17:22:54.728Z,8.88
2023-04-07T17:25:22.743Z,8.91
2023-04-07T17:27:49.222Z,8.81
2023-04-07T17:30:15.902Z,8.83
2023-04-07T17:32:43.479Z,8.82
2023-04-07T17:35:09.990Z,8.78
2023-04-07T17:37:38.218Z,8.80
2023-04-07T17:40:05.197Z,8.77
2023-04-07T17:42:32.908Z,8.75
2023-04-07T17:44:59.603Z,8.77
2023-04-07T17:47:26.375Z,8.75
2023-04-07T17:49:52.878Z,8.77
2023-04-07T17:52:19.286Z,8.73
2023-04-07T17:54:46.998Z,8.67
2023-04-07T17:57:14.463Z,8.69
2023-04-07T17:59:41.853Z,8.64
2023-04-07T18:02:10.150Z,8.62
2023-04-07T18:04:37.928Z,8.69
2023-04-07T18:07:04.841Z,8.64
2023-04-07T18:09:32.381Z,8.59
2023-04-07T18:11:59.250Z,8.63
2023-04-07T18:14:26.067Z,8.64
2023-04-07T18:16:54.505Z,8.63
2023-04-07T18:19:22.851Z,8.66
2023-04-07T18:21:52.303Z,8.70
2023-04-07T18:24:20.557Z,8.69
2023-04-07T18:26:46.948Z,8.67
2023-04-07T18:29:14.652Z,8.69
2023-04-07T18:31:44.747Z,8.65
2023-04-07T18:34:12.109Z,8.63
2023-04-07T18:36:41.206Z,8.61
2023-04-07T18:39:07.816Z,8.56
2023-04-07T18:41:35.182Z,8.59
2023-04-07T18:44:02.240Z,8.54
2023-04-07T18:46:29.992Z,8.54
2023-04-07T18:48:56.699Z,8.55
2023-04-07T18:51:23.344Z,8.58
2023-04-07T18:53:50.551Z,8.64
2023-04-07T18:56:17.817Z,8.59
2023-04-07T18:58:45.624Z,8.61
2023-04-07T19:01:13.709Z,8.47
2023-04-07T19:03:40.766Z,8.58
2023-04-07T19:06:07.970Z,8.53
2023-04-07T19:08:36.305Z,8.50
2023-04-07T19:11:03.601Z,8.47
2023-04-07T19:13:32.895Z,8.42
2023-04-07T19:16:00.151Z,8.40
2023-04-07T19:18:29.053Z,8.49
2023-04-07T19:20:55.897Z,8.57
2023-04-07T19:23:22.775Z,8.73
2023-04-07T19:25:49.744Z,8.54
2023-04-07T19:28:16.722Z,8.48
2023-04-07T19:30:43.440Z,8.59
2023-04-07T19:33:11.674Z,8.63
2023-04-07T19:35:41.558Z,8.64
2023-04-07T19:38:08.117Z,8.55
2023-04-07T19:40:36.325Z,8.45
2023-04-07T19:43:03.365Z,8.52
2023-04-07T19:45:29.874Z,8.46
2023-04-07T19:47:56.877Z,8.50
2023-04-07T19:50:23.858Z,8.49
2023-04-07T19:52:53.135Z,8.56
2023-04-07T19:55:19.816Z,8.66
2023-04-07T19:57:47.057Z,8.61
2023-04-07T20:00:13.934Z,8.61
2023-04-07T20:02:41.924Z,8.58
2023-04-07T20:05:09.833Z,8.59
2023-04-07T20:07:37.357Z,8.58
2023-04-07T20:10:04.213Z,8.59
2023-04-07T20:12:31.938Z,8.58
2023-04-07T20:14:58.329Z,8.57
2023-04-07T20:17:25.248Z,8.57
2023-04-07T20:19:54.691Z,8.56
2023-04-07T20:22:22.724Z,8.53
2023-04-07T20:24:49.571Z,8.62
2023-04-07T20:27:16.151Z,8.52
2023-04-07T20:29:42.597Z,8.54
2023-04-07T20:32:09.109Z,8.54
2023-04-07T20:34:35.865Z,8.52
2023-04-07T20:37:02.387Z,8.45
2023-04-07T20:39:29.098Z,8.53
2023-04-07T20:41:56.794Z,8.53
2023-04-07T20:44:23.322Z,8.50
2023-04-07T20:46:49.805Z,8.42
2023-04-07T20:49:16.306Z,8.40
2023-04-07T20:51:42.655Z,8.43
2023-04-07T20:54:09.164Z,8.32
2023-04-07T20:56:36.790Z,8.33
2023-04-07T20:59:03.281Z,8.32
2023-04-07T21:01:29.768Z,8.35
2023-04-07T21:03:56.913Z,8.35
2023-04-07T21:06:23.623Z,8.35
2023-04-07T21:08:50.429Z,8.33
2023-04-07T21:11:17.296Z,8.28
2023-04-07T21:13:44.103Z,8.30
2023-04-07T21:16:11.274Z,8.30
2023-04-07T21:18:39.560Z,8.34
2023-04-07T21:21:08.530Z,8.32
2023-04-07T21:23:35.272Z,8.42
2023-04-07T21:26:05.284Z,8.41
2023-04-07T21:28:32.702Z,8.30
2023-04-07T21:31:01.112Z,8.36
2023-04-07T21:33:27.918Z,8.34
2023-04-07T21:35:56.418Z,8.37
2023-04-07T21:38:23.144Z,8.38
2023-04-07T21:40:49.791Z,8.33
2023-04-07T21:43:16.267Z,8.24
2023-04-07T21:45:44.283Z,8.26
2023-04-07T21:48:10.951Z,8.26
2023-04-07T21:50:40.262Z,8.25
2023-04-07T21:53:08.893Z,8.30
2023-04-07T21:55:36.170Z,8.29
2023-04-07T21:58:03.723Z,8.21
2023-04-07T22:00:30.579Z,8.26
2023-04-07T22:02:57.112Z,8.25
2023-04-07T22:05:23.837Z,8.20
2023-04-07T22:07:51.701Z,8.29
2023-04-07T22:10:18.524Z,8.23
2023-04-07T22:12:46.108Z,8.21
2023-04-07T22:15:14.030Z,8.21
2023-04-07T22:17:41.219Z,8.20
2023-04-07T22:20:10.015Z,8.18
2023-04-07T22:22:37.885Z,8.28
2023-04-07T22:25:05.514Z,8.22
2023-04-07T22:27:32.785Z,8.25
2023-04-07T22:29:59.255Z,8.29
2023-04-07T22:32:27.346Z,8.26
2023-04-07T22:34:54.222Z,8.15
2023-04-07T22:37:20.688Z,8.13
2023-04-07T22:39:47.560Z,8.14
2023-04-07T22:42:14.044Z,8.29
2023-04-07T22:44:40.923Z,8.27
2023-04-07T22:47:07.616Z,8.28
2023-04-07T22:49:34.110Z,8.19
2023-04-07T22:52:01.001Z,8.18
2023-04-07T22:54:27.454Z,8.17
2023-04-07T22:56:53.957Z,8.14
2023-04-07T22:59:21.897Z,8.12
2023-04-07T23:01:48.768Z,8.12
2023-04-07T23:04:15.454Z,8.18
2023-04-07T23:06:43.382Z,8.11
2023-04-07T23:09:10.152Z,8.08
2023-04-07T23:11:36.719Z,8.14
2023-04-07T23:14:06.692Z,8.13
2023-04-07T23:16:34.188Z,8.18
2023-04-07T23:19:01.474Z,8.19
2023-04-07T23:21:30.137Z,8.20
2023-04-07T23:23:57.766Z,8.16
2023-04-07T23:26:24.859Z,8.11
2023-04-07T23:28:52.160Z,8.07
2023-04-07T23:31:18.821Z,8.09
2023-04-07T23:33:46.598Z,8.10
2023-04-07T23:36:13.296Z,8.09
2023-04-07T23:38:40.651Z,8.13
2023-04-07T23:41:07.704Z,8.14
2023-04-07T23:43:35.590Z,8.14
2023-04-07T23:46:02.346Z,8.09
2023-04-07T23:48:30.992Z,8.03
2023-04-07T23:50:59.615Z,8.06
2023-04-07T23:53:26.059Z,8.06
2023-04-07T23:55:52.534Z,8.10
2023-04-07T23:58:19.294Z,8.06
